createdAt,value
2023-01-20T00:00:20.602Z,55.10
2023-01-20T00:03:09.118Z,48.80
2023-01-20T00:05:37.912Z,48.20
2023-01-20T00:08:09.729Z,57.00
2023-01-20T00:10:41.514Z,60.80
2023-01-20T00:13:10.248Z,63.70
2023-01-20T00:15:39.248Z,59.00
2023-01-20T00:18:07.829Z,54.80
2023-01-20T00:20:36.731Z,57.70
2023-01-20T00:23:05.464Z,63.80
2023-01-20T00:25:37.441Z,58.00
2023-01-20T00:28:06.525Z,59.50
2023-01-20T00:30:35.448Z,54.70
2023-01-20T00:33:04.368Z,55.90
2023-01-20T00:35:33.177Z,54.30
2023-01-20T00:38:01.869Z,56.10
2023-01-20T00:40:32.892Z,56.40
2023-01-20T00:43:06.610Z,57.00
2023-01-20T00:45:40.814Z,58.50
2023-01-20T00:48:12.858Z,60.10
2023-01-20T00:50:45.268Z,54.00
2023-01-20T00:53:24.622Z,55.10
2023-01-20T00:55:56.452Z,51.60
2023-01-20T00:58:30.155Z,61.00
2023-01-20T01:01:02.501Z,59.00
2023-01-20T01:03:35.162Z,55.00
2023-01-20T01:09:18.669Z,55.60
2023-01-20T01:11:47.698Z,49.20
2023-01-20T01:14:17.986Z,51.30
2023-01-20T01:16:46.773Z,57.30
2023-01-20T01:19:19.612Z,47.20
2023-01-20T01:21:48.511Z,56.10
2023-01-20T01:24:17.121Z,54.50
2023-01-20T01:26:45.859Z,64.60
2023-01-20T01:29:15.016Z,74.00
2023-01-20T01:31:43.927Z,69.00
2023-01-20T01:34:13.438Z,67.40
2023-01-20T01:36:43.335Z,65.20
2023-01-20T01:39:15.223Z,55.70
2023-01-20T01:41:50.078Z,73.90
2023-01-20T01:44:22.163Z,72.00
2023-01-20T01:46:55.907Z,65.50
2023-01-20T01:49:28.541Z,74.40
2023-01-20T01:52:06.320Z,68.60
2023-01-20T01:54:38.034Z,53.10
2023-01-20T01:57:10.082Z,66.20
2023-01-20T01:59:39.166Z,70.60
2023-01-20T02:03:04.810Z,63.40
2023-01-20T02:05:53.558Z,68.20
2023-01-20T02:08:22.332Z,63.20
2023-01-20T02:11:08.965Z,59.50
2023-01-20T02:13:37.734Z,64.30
2023-01-20T02:16:25.899Z,65.40
2023-01-20T02:19:28.550Z,71.90
2023-01-20T02:22:11.371Z,65.20
2023-01-20T02:25:27.860Z,67.20
2023-01-20T02:28:05.735Z,61.90
2023-01-20T02:30:49.668Z,58.90
2023-01-20T02:33:31.113Z,55.40
2023-01-20T02:36:12.403Z,70.10
2023-01-20T02:38:48.863Z,75.60
2023-01-20T02:41:22.152Z,63.70
2023-01-20T02:44:17.969Z,62.60
2023-01-20T02:47:00.494Z,60.80
2023-01-20T02:49:33.344Z,64.00
2023-01-20T02:52:39.775Z,66.00
2023-01-20T02:55:15.093Z,71.00
2023-01-20T02:57:51.130Z,68.90
2023-01-20T03:00:24.021Z,68.00
2023-01-20T03:02:54.120Z,70.80
2023-01-20T03:05:34.180Z,73.00
2023-01-20T03:08:06.970Z,67.80
2023-01-20T03:10:37.361Z,71.00
2023-01-20T03:13:27.974Z,80.20
2023-01-20T03:16:05.685Z,77.30
2023-01-20T03:18:35.796Z,81.60
2023-01-20T03:21:05.943Z,76.00
2023-01-20T03:23:36.650Z,79.30
2023-01-20T03:26:09.191Z,76.20
2023-01-20T03:28:42.978Z,66.20
2023-01-20T03:31:23.921Z,72.60
2023-01-20T03:33:59.825Z,73.60
2023-01-20T03:36:35.706Z,68.90
2023-01-20T03:39:08.285Z,71.80
2023-01-20T03:41:49.411Z,69.00
2023-01-20T03:44:46.759Z,85.30
2023-01-20T03:47:35.482Z,78.20
2023-01-20T03:50:32.980Z,76.10
2023-01-20T03:53:31.051Z,75.80
2023-01-20T03:56:11.385Z,79.50
2023-01-20T03:58:45.070Z,69.40
2023-01-20T04:01:18.432Z,73.00
2023-01-20T04:03:52.797Z,72.10
2023-01-20T04:06:28.720Z,80.50
2023-01-20T04:09:07.852Z,79.80
2023-01-20T04:11:41.266Z,77.00
2023-01-20T04:14:13.778Z,85.20
2023-01-20T04:16:54.096Z,71.40
2023-01-20T04:19:26.921Z,64.40
2023-01-20T04:22:21.427Z,71.10
2023-01-20T04:25:14.354Z,68.90
2023-01-20T04:27:45.868Z,74.60
2023-01-20T04:30:20.575Z,75.20
2023-01-20T04:32:50.841Z,71.00
2023-01-20T04:35:20.881Z,71.40
2023-01-20T04:37:49.647Z,68.80
2023-01-20T04:40:22.254Z,74.80
2023-01-20T04:42:54.248Z,70.60
2023-01-20T04:45:23.827Z,74.90
2023-01-20T04:47:56.997Z,78.50
2023-01-20T04:50:31.234Z,70.80
2023-01-20T04:53:02.729Z,69.90
2023-01-20T04:55:35.031Z,56.70
2023-01-20T04:58:06.881Z,59.70
2023-01-20T05:00:39.913Z,73.20
2023-01-20T05:03:11.688Z,74.30
2023-01-20T05:05:43.464Z,67.10
2023-01-20T05:08:16.984Z,62.70
2023-01-20T05:10:45.456Z,68.10
2023-01-20T05:13:14.430Z,68.90
2023-01-20T05:15:44.687Z,66.30
2023-01-20T05:18:13.246Z,68.60
2023-01-20T05:20:41.817Z,68.10
2023-01-20T05:23:11.422Z,80.90
2023-01-20T05:25:40.428Z,71.50
2023-01-20T05:28:13.507Z,73.60
2023-01-20T05:30:45.892Z,69.10
2023-01-20T05:33:20.465Z,72.50
2023-01-20T05:35:56.075Z,83.40
2023-01-20T05:38:27.517Z,80.90
2023-01-20T05:41:05.041Z,80.00
2023-01-20T05:43:35.370Z,81.40
2023-01-20T05:46:08.160Z,82.70
2023-01-20T05:48:39.218Z,84.10
2023-01-20T05:51:11.569Z,81.60
2023-01-20T05:53:44.548Z,83.50
2023-01-20T05:56:16.993Z,79.50
2023-01-20T05:58:45.821Z,77.00
2023-01-20T06:01:15.017Z,80.40
2023-01-20T06:03:43.921Z,72.80
2023-01-20T06:06:15.943Z,77.90
2023-01-20T06:08:45.920Z,71.00
2023-01-20T06:11:15.562Z,58.70
2023-01-20T06:13:49.342Z,73.40
2023-01-20T06:16:21.102Z,71.50
2023-01-20T06:18:55.553Z,80.00
2023-01-20T06:21:27.487Z,78.70
2023-01-20T06:24:02.100Z,73.90
2023-01-20T06:26:35.179Z,72.50
2023-01-20T06:29:07.414Z,68.20
2023-01-20T06:31:43.121Z,56.50
2023-01-20T06:34:18.973Z,71.00
2023-01-20T06:36:50.987Z,77.40
2023-01-20T06:39:23.811Z,64.30
2023-01-20T06:42:01.351Z,66.00
2023-01-20T06:44:36.847Z,70.90
2023-01-20T06:47:07.848Z,76.50
2023-01-20T06:49:38.477Z,69.00
2023-01-20T06:52:11.311Z,68.60
2023-01-20T06:54:45.582Z,78.50
2023-01-20T06:57:15.420Z,78.70
2023-01-20T06:59:48.672Z,68.60
2023-01-20T07:02:21.103Z,68.60
2023-01-20T07:04:55.233Z,68.60
2023-01-20T07:07:28.536Z,70.90
2023-01-20T07:10:01.584Z,72.90
2023-01-20T07:12:31.410Z,76.20
2023-01-20T07:15:00.312Z,72.60
2023-01-20T07:17:29.300Z,63.70
2023-01-20T07:19:57.984Z,67.40
2023-01-20T07:22:28.140Z,76.40
2023-01-20T07:24:58.007Z,67.30
2023-01-20T07:27:27.157Z,71.30
2023-01-20T07:29:56.309Z,68.10
2023-01-20T07:32:31.506Z,68.50
2023-01-20T07:35:04.414Z,68.50
2023-01-20T07:37:33.102Z,72.10
2023-01-20T07:40:02.105Z,67.60
2023-01-20T07:42:31.190Z,68.90
2023-01-20T07:45:00.289Z,68.50
2023-01-20T07:47:28.870Z,66.20
2023-01-20T07:49:57.865Z,66.90
2023-01-20T07:52:26.647Z,74.40
2023-01-20T07:54:55.218Z,74.30
2023-01-20T07:57:26.679Z,73.20
2023-01-20T07:59:58.563Z,79.90
2023-01-20T08:02:31.009Z,81.00
2023-01-20T08:05:06.299Z,73.40
2023-01-20T08:07:38.748Z,71.40
2023-01-20T08:10:12.198Z,73.30
2023-01-20T08:12:47.974Z,74.90
2023-01-20T08:15:19.329Z,72.20
2023-01-20T08:17:48.147Z,76.50
2023-01-20T08:20:19.566Z,71.50
2023-01-20T08:22:48.773Z,57.10
2023-01-20T08:25:17.715Z,58.10
2023-01-20T08:27:49.551Z,62.10
2023-01-20T08:30:19.016Z,61.00
2023-01-20T08:32:47.814Z,62.10
2023-01-20T08:35:18.796Z,63.50
2023-01-20T08:37:53.171Z,55.70
2023-01-20T08:40:24.103Z,59.20
2023-01-20T08:42:52.784Z,60.60
2023-01-20T08:45:21.979Z,53.70
2023-01-20T08:47:51.574Z,49.40
2023-01-20T08:50:23.152Z,56.60
2023-01-20T08:52:53.150Z,55.20
2023-01-20T08:55:23.284Z,55.90
2023-01-20T08:57:52.983Z,61.30
2023-01-20T09:00:22.708Z,61.40
2023-01-20T09:02:51.534Z,51.50
2023-01-20T09:05:22.836Z,58.80
2023-01-20T09:07:51.830Z,50.70
2023-01-20T09:10:25.738Z,53.70
2023-01-20T09:12:55.970Z,49.30
2023-01-20T09:15:25.733Z,52.80
2023-01-20T09:17:55.244Z,55.80
2023-01-20T09:20:27.487Z,55.20
2023-01-20T09:22:56.219Z,54.90
2023-01-20T09:25:24.792Z,57.90
2023-01-20T09:27:56.977Z,57.50
2023-01-20T09:30:25.969Z,49.30
2023-01-20T09:32:56.785Z,51.60
2023-01-20T09:35:26.185Z,48.70
2023-01-20T09:38:13.623Z,45.20
2023-01-20T09:41:17.742Z,55.10
2023-01-20T09:44:02.193Z,51.70
2023-01-20T09:46:36.451Z,50.70
2023-01-20T09:49:35.954Z,54.60
2023-01-20T09:52:52.318Z,45.90
2023-01-20T09:55:48.262Z,54.20
2023-01-20T09:58:25.316Z,52.10
2023-01-20T10:01:18.720Z,51.70
2023-01-20T10:03:58.648Z,51.60
2023-01-20T10:06:34.790Z,48.30
2023-01-20T10:09:41.187Z,52.70
2023-01-20T10:12:29.450Z,48.20
2023-01-20T10:15:13.262Z,49.30
2023-01-20T10:17:53.404Z,50.90
2023-01-20T10:20:30.126Z,46.80
2023-01-20T10:23:01.316Z,54.40
2023-01-20T10:25:38.808Z,46.20
2023-01-20T10:28:16.419Z,54.00
2023-01-20T10:30:47.406Z,43.20
2023-01-20T10:33:22.381Z,53.80
2023-01-20T10:35:53.208Z,49.60
2023-01-20T10:38:43.728Z,58.60
2023-01-20T10:41:41.283Z,52.90
2023-01-20T10:44:18.660Z,48.80
2023-01-20T10:47:04.037Z,56.90
2023-01-20T10:49:53.338Z,55.10
2023-01-20T10:52:28.666Z,50.20
2023-01-20T10:55:21.303Z,49.00
2023-01-20T10:58:13.604Z,49.00
2023-01-20T11:00:43.197Z,47.30
2023-01-20T11:03:16.919Z,44.20
2023-01-20T11:05:47.088Z,43.50
2023-01-20T11:08:23.577Z,38.00
2023-01-20T11:10:55.846Z,33.30
2023-01-20T11:13:25.860Z,32.70
2023-01-20T11:16:01.382Z,37.70
2023-01-20T11:18:33.249Z,36.20
2023-01-20T11:21:14.400Z,37.10
2023-01-20T11:23:58.396Z,38.40
2023-01-20T11:26:32.897Z,27.20
2023-01-20T11:29:02.907Z,33.90
2023-01-20T11:31:40.700Z,30.00
2023-01-20T11:34:37.618Z,32.00
2023-01-20T11:37:06.119Z,30.10
2023-01-20T11:39:43.621Z,22.70
2023-01-20T11:42:24.166Z,26.40
2023-01-20T11:45:20.406Z,26.60
2023-01-20T11:48:21.849Z,31.50
2023-01-20T11:50:54.747Z,30.70
2023-01-20T11:53:28.882Z,34.00
2023-01-20T11:56:04.398Z,34.30
2023-01-20T11:58:52.694Z,33.90
2023-01-20T12:01:28.275Z,31.00
2023-01-20T12:04:10.842Z,35.80
2023-01-20T12:07:03.380Z,33.60
2023-01-20T12:09:38.565Z,31.90
2023-01-20T12:12:15.274Z,28.50
2023-01-20T12:14:51.228Z,31.50
2023-01-20T12:17:28.999Z,30.00
2023-01-20T12:20:06.593Z,27.90
2023-01-20T12:22:42.860Z,30.90
2023-01-20T12:25:30.350Z,35.70
2023-01-20T12:28:06.263Z,27.70
2023-01-20T12:30:59.073Z,30.20
2023-01-20T12:33:39.486Z,30.80
2023-01-20T12:36:36.088Z,35.10
2023-01-20T12:39:23.332Z,33.10
2023-01-20T12:42:10.654Z,31.40
2023-01-20T12:44:59.102Z,34.90
2023-01-20T12:47:46.495Z,27.40
2023-01-20T12:50:18.576Z,30.00
2023-01-20T12:53:39.486Z,28.10
2023-01-20T12:56:29.664Z,32.60
2023-01-20T12:59:20.467Z,31.90
2023-01-20T13:02:04.402Z,29.00
2023-01-20T13:05:02.185Z,31.60
2023-01-20T13:07:40.965Z,34.20
2023-01-20T13:10:42.675Z,33.20
2023-01-20T13:13:23.547Z,30.10
2023-01-20T13:16:03.279Z,29.00
2023-01-20T13:19:09.257Z,25.30
2023-01-20T13:21:38.480Z,30.30
2023-01-20T13:24:19.543Z,32.40
2023-01-20T13:26:48.698Z,35.80
2023-01-20T13:29:52.198Z,35.60
2023-01-20T13:32:49.278Z,36.90
2023-01-20T13:35:17.960Z,30.10
2023-01-20T13:37:58.064Z,36.20
2023-01-20T13:40:39.393Z,41.50
2023-01-20T13:43:38.289Z,30.70
2023-01-20T13:46:06.973Z,35.30
2023-01-20T13:48:44.858Z,34.10
2023-01-20T13:51:16.831Z,30.00
2023-01-20T13:53:46.149Z,29.90
2023-01-20T13:56:24.852Z,32.70
2023-01-20T13:58:55.074Z,34.00
2023-01-20T14:01:23.917Z,30.00
2023-01-20T14:04:16.709Z,26.00
2023-01-20T14:06:46.988Z,26.00
2023-01-20T14:09:26.753Z,30.20
2023-01-20T14:12:00.823Z,29.50
2023-01-20T14:14:29.989Z,29.00
2023-01-20T14:17:02.578Z,26.50
2023-01-20T14:19:33.416Z,25.40
2023-01-20T14:22:04.887Z,28.10
2023-01-20T14:24:48.751Z,22.10
2023-01-20T14:27:18.909Z,22.10
2023-01-20T14:29:49.871Z,22.80
2023-01-20T14:32:35.450Z,27.90
2023-01-20T14:35:17.852Z,26.20
2023-01-20T14:37:51.027Z,25.70
2023-01-20T14:40:24.083Z,18.80
2023-01-20T14:43:08.232Z,26.80
2023-01-20T14:45:37.555Z,27.80
2023-01-20T14:48:07.061Z,26.30
2023-01-20T14:50:35.855Z,27.50
2023-01-20T14:53:05.451Z,25.10
2023-01-20T14:55:43.629Z,28.10
2023-01-20T14:58:20.080Z,23.90
2023-01-20T15:00:51.042Z,18.80
2023-01-20T15:03:25.432Z,32.80
2023-01-20T15:05:56.035Z,29.10
2023-01-20T15:08:27.423Z,32.00
2023-01-20T15:11:15.001Z,22.20
2023-01-20T15:14:11.082Z,30.50
2023-01-20T15:16:49.748Z,17.90
2023-01-20T15:19:28.979Z,32.50
2023-01-20T15:22:16.207Z,30.30
2023-01-20T15:24:47.655Z,24.80
2023-01-20T15:27:24.198Z,23.30
2023-01-20T15:30:21.149Z,26.80
2023-01-20T15:32:52.053Z,30.40
2023-01-20T15:35:29.067Z,29.40
2023-01-20T15:37:57.957Z,27.70
2023-01-20T15:40:27.380Z,24.90
2023-01-20T15:42:57.794Z,21.10
2023-01-20T15:45:27.407Z,22.10
2023-01-20T15:47:57.014Z,24.10
2023-01-20T15:50:27.036Z,27.60
2023-01-20T15:52:56.748Z,19.10
2023-01-20T15:55:25.521Z,22.90
2023-01-20T15:57:54.208Z,25.30
2023-01-20T16:00:24.466Z,33.60
2023-01-20T16:02:53.692Z,30.50
2023-01-20T16:05:22.520Z,24.80
2023-01-20T16:07:51.625Z,25.70
2023-01-20T16:10:20.389Z,28.60
2023-01-20T16:12:49.089Z,27.30
2023-01-20T16:15:18.916Z,25.50
2023-01-20T16:17:49.617Z,31.90
2023-01-20T16:20:23.580Z,23.10
2023-01-20T16:22:52.638Z,31.10
2023-01-20T16:25:21.747Z,22.80
2023-01-20T16:27:50.838Z,22.90
2023-01-20T16:30:21.657Z,32.30
2023-01-20T16:32:51.481Z,27.90
2023-01-20T16:35:21.279Z,28.10
2023-01-20T16:37:50.280Z,31.40
2023-01-20T16:40:20.873Z,30.60
2023-01-20T16:42:49.695Z,32.60
2023-01-20T16:45:36.628Z,41.10
2023-01-20T16:48:11.098Z,26.50
2023-01-20T16:50:42.567Z,36.10
2023-01-20T16:53:12.950Z,34.70
2023-01-20T16:55:46.700Z,40.70
2023-01-20T16:58:16.851Z,34.70
2023-01-20T17:00:45.771Z,37.10
2023-01-20T17:03:14.721Z,40.80
2023-01-20T17:05:44.222Z,34.70
2023-01-20T17:08:12.905Z,41.90
2023-01-20T17:10:47.795Z,28.20
2023-01-20T17:13:17.238Z,48.80
2023-01-20T17:15:46.136Z,47.10
2023-01-20T17:18:15.785Z,44.00
2023-01-20T17:20:50.894Z,42.50
2023-01-20T17:23:21.193Z,29.90
2023-01-20T17:25:49.784Z,44.80
2023-01-20T17:28:19.223Z,44.20
2023-01-20T17:30:49.340Z,42.20
2023-01-20T17:33:18.075Z,50.80
2023-01-20T17:36:00.162Z,50.60
2023-01-20T17:38:30.611Z,38.20
2023-01-20T17:41:06.037Z,44.90
2023-01-20T17:43:39.525Z,55.20
2023-01-20T17:46:17.441Z,41.20
2023-01-20T17:48:48.457Z,53.80
2023-01-20T17:51:23.047Z,42.40
2023-01-20T17:53:56.321Z,40.20
2023-01-20T17:56:26.294Z,45.80
2023-01-20T17:58:56.050Z,53.40
2023-01-20T18:01:28.234Z,54.70
2023-01-20T18:04:01.038Z,52.20
2023-01-20T18:06:31.559Z,72.60
2023-01-20T18:09:07.861Z,45.80
2023-01-20T18:11:38.000Z,51.50
2023-01-20T18:14:09.009Z,57.20
2023-01-20T18:16:42.033Z,45.30
2023-01-20T18:19:14.689Z,55.80
2023-01-20T18:21:44.851Z,45.90
2023-01-20T18:24:18.280Z,48.30
2023-01-20T18:26:49.067Z,49.10
2023-01-20T18:29:19.665Z,41.30
2023-01-20T18:31:53.063Z,55.40
2023-01-20T18:34:22.990Z,42.70
2023-01-20T18:36:54.638Z,55.60
2023-01-20T18:39:26.576Z,53.10
2023-01-20T18:41:57.147Z,62.60
2023-01-20T18:44:27.653Z,48.50
2023-01-20T18:46:58.102Z,54.50
2023-01-20T18:49:27.800Z,43.20
2023-01-20T18:51:58.643Z,55.60
2023-01-20T18:54:33.987Z,46.00
2023-01-20T18:57:09.263Z,43.40
2023-01-20T18:59:46.382Z,49.90
2023-01-20T19:02:21.533Z,43.20
2023-01-20T19:04:54.245Z,54.20
2023-01-20T19:07:31.037Z,49.50
2023-01-20T19:10:02.941Z,53.90
2023-01-20T19:12:32.925Z,49.30
2023-01-20T19:15:03.109Z,33.80
2023-01-20T19:17:34.075Z,60.00
2023-01-20T19:20:13.461Z,47.60
2023-01-20T19:22:44.939Z,57.30
2023-01-20T19:25:16.211Z,43.10
2023-01-20T19:27:51.912Z,42.20
2023-01-20T19:30:21.814Z,57.20
2023-01-20T19:32:52.133Z,50.80
2023-01-20T19:35:22.248Z,51.20
2023-01-20T19:37:52.701Z,50.80
2023-01-20T19:40:23.981Z,53.60
2023-01-20T19:43:07.438Z,42.40
2023-01-20T19:45:46.219Z,62.60
2023-01-20T19:48:22.876Z,50.30
2023-01-20T19:51:11.125Z,52.60
2023-01-20T19:53:44.039Z,61.90
2023-01-20T19:56:20.776Z,54.20
2023-01-20T19:58:53.797Z,39.60
2023-01-20T20:01:30.549Z,43.20
2023-01-20T20:04:09.978Z,55.30
2023-01-20T20:06:48.860Z,65.50
2023-01-20T20:09:26.945Z,66.70
2023-01-20T20:12:00.863Z,50.60
2023-01-20T20:14:31.990Z,55.00
2023-01-20T20:17:02.707Z,64.70
2023-01-20T20:19:33.767Z,64.30
2023-01-20T20:22:05.186Z,59.00
2023-01-20T20:24:38.566Z,59.40
2023-01-20T20:27:12.978Z,69.90
2023-01-20T20:29:44.249Z,66.60
2023-01-20T20:32:14.251Z,42.70
2023-01-20T20:34:44.863Z,48.10
2023-01-20T20:37:15.303Z,50.00
2023-01-20T20:39:46.590Z,60.90
2023-01-20T20:42:18.959Z,43.30
2023-01-20T20:44:49.552Z,68.50
2023-01-20T20:47:21.093Z,49.30
2023-01-20T20:49:55.365Z,54.70
2023-01-20T20:52:25.509Z,64.00
2023-01-20T20:54:57.047Z,66.60
2023-01-20T20:57:30.838Z,66.10
2023-01-20T21:00:00.865Z,80.40
2023-01-20T21:02:34.043Z,66.60
2023-01-20T21:05:17.373Z,64.10
2023-01-20T21:07:50.468Z,61.40
2023-01-20T21:10:22.128Z,51.40
2023-01-20T21:12:51.867Z,59.40
2023-01-20T21:15:24.243Z,53.90
2023-01-20T21:17:54.941Z,73.50
2023-01-20T21:20:25.155Z,58.80
2023-01-20T21:22:54.711Z,56.20
2023-01-20T21:25:25.774Z,66.50
2023-01-20T21:27:56.667Z,74.10
2023-01-20T21:30:26.121Z,64.10
2023-01-20T21:32:56.422Z,62.00
2023-01-20T21:35:29.059Z,71.30
2023-01-20T21:38:04.239Z,53.60
2023-01-20T21:40:40.299Z,79.90
2023-01-20T21:43:29.361Z,86.20
2023-01-20T21:46:00.852Z,53.20
2023-01-20T21:48:49.265Z,64.40
2023-01-20T21:51:38.919Z,81.90
2023-01-20T21:54:08.425Z,58.70
2023-01-20T21:56:38.040Z,63.20
2023-01-20T21:59:08.147Z,58.50
2023-01-20T22:01:37.444Z,65.90
2023-01-20T22:04:06.149Z,81.40
2023-01-20T22:06:34.809Z,53.10
2023-01-20T22:09:03.624Z,59.50
2023-01-20T22:11:32.298Z,51.50
2023-01-20T22:14:05.088Z,60.90
2023-01-20T22:16:33.801Z,51.30
2023-01-20T22:19:02.564Z,55.20
2023-01-20T22:21:32.630Z,62.20
2023-01-20T22:24:04.129Z,47.30
2023-01-20T22:26:33.220Z,63.00
2023-01-20T22:29:02.115Z,56.70
2023-01-20T22:31:32.470Z,57.40
2023-01-20T22:34:05.724Z,60.10
2023-01-20T22:36:34.806Z,57.10
2023-01-20T22:39:04.836Z,59.20
2023-01-20T22:41:34.039Z,48.50
2023-01-20T22:44:02.622Z,42.10
2023-01-20T22:46:33.908Z,53.70
2023-01-20T22:49:09.349Z,44.00
2023-01-20T22:51:40.105Z,43.60
2023-01-20T22:54:11.580Z,59.40
2023-01-20T22:56:42.278Z,63.70
2023-01-20T22:59:13.885Z,55.20
2023-01-20T23:01:43.491Z,66.80
2023-01-20T23:04:13.493Z,44.60
2023-01-20T23:06:42.088Z,51.00
2023-01-20T23:09:12.907Z,59.60
2023-01-20T23:11:41.708Z,63.70
2023-01-20T23:14:13.171Z,54.10
2023-01-20T23:16:43.041Z,58.70
2023-01-20T23:19:11.959Z,43.00
2023-01-20T23:21:41.380Z,67.20
2023-01-20T23:24:10.862Z,56.90
2023-01-20T23:26:39.453Z,36.80
2023-01-20T23:29:12.248Z,49.50
2023-01-20T23:31:46.433Z,42.90
2023-01-20T23:34:14.920Z,47.50
2023-01-20T23:36:43.621Z,44.30
2023-01-20T23:39:12.700Z,47.80
2023-01-20T23:41:41.281Z,51.50
2023-01-20T23:44:10.684Z,57.60
2023-01-20T23:46:39.285Z,40.50
2023-01-20T23:49:08.364Z,49.30
2023-01-20T23:51:36.943Z,55.00
2023-01-20T23:54:06.862Z,56.20
2023-01-20T23:56:37.693Z,40.20
2023-01-20T23:59:07.304Z,45.10
